sensor_id;sensor_type;location;lat;lon;timestamp;P1;durP1;ratioP1;P2;durP2;ratioP2
49340;SDS011;35209;51.050;13.678;2022-09-06T00:02:45;13.10;;;12.23;;
49340;SDS011;35209;51.050;13.678;2022-09-06T00:07:47;13.38;;;12.55;;
49340;SDS011;35209;51.050;13.678;2022-09-06T00:12:49;14.38;;;13.48;;
49340;SDS011;35209;51.050;13.678;2022-09-06T00:17:51;13.88;;;13.07;;
49340;SDS011;35209;51.050;13.678;2022-09-06T00:23:03;13.43;;;12.63;;
49340;SDS011;35209;51.050;13.678;2022-09-06T00:28:05;13.52;;;12.70;;
49340;SDS011;35209;51.050;13.678;2022-09-06T00:33:07;13.70;;;12.90;;
49340;SDS011;35209;51.050;13.678;2022-09-06T00:38:09;13.60;;;12.68;;
49340;SDS011;35209;51.050;13.678;2022-09-06T00:43:11;14.52;;;13.40;;
49340;SDS011;35209;51.050;13.678;2022-09-06T00:48:12;14.02;;;13.23;;
49340;SDS011;35209;51.050;13.678;2022-09-06T00:53:16;13.93;;;12.95;;
49340;SDS011;35209;51.050;13.678;2022-09-06T00:58:19;13.85;;;12.95;;
49340;SDS011;35209;51.050;13.678;2022-09-06T01:03:22;13.85;;;12.95;;
49340;SDS011;35209;51.050;13.678;2022-09-06T01:25:00;12.35;;;11.38;;
49340;SDS011;35209;51.050;13.678;2022-09-06T01:30:22;12.00;;;11.30;;
49340;SDS011;35209;51.050;13.678;2022-09-06T01:40:31;12.38;;;11.45;;
49340;SDS011;35209;51.050;13.678;2022-09-06T01:45:55;12.38;;;11.40;;
49340;SDS011;35209;51.050;13.678;2022-09-06T01:51:11;11.63;;;10.88;;
49340;SDS011;35209;51.050;13.678;2022-09-06T01:56:28;11.95;;;11.23;;
49340;SDS011;35209;51.050;13.678;2022-09-06T02:06:46;11.70;;;11.02;;
49340;SDS011;35209;51.050;13.678;2022-09-06T02:11:59;10.60;;;9.98;;
49340;SDS011;35209;51.050;13.678;2022-09-06T02:17:04;11.70;;;11.00;;
49340;SDS011;35209;51.050;13.678;2022-09-06T02:22:09;11.27;;;10.68;;
49340;SDS011;35209;51.050;13.678;2022-09-06T02:27:16;10.20;;;9.63;;
49340;SDS011;35209;51.050;13.678;2022-09-06T02:32:19;10.68;;;10.05;;
49340;SDS011;35209;51.050;13.678;2022-09-06T02:37:23;10.38;;;9.63;;
49340;SDS011;35209;51.050;13.678;2022-09-06T02:42:28;9.80;;;9.20;;
49340;SDS011;35209;51.050;13.678;2022-09-06T02:47:30;10.25;;;9.70;;
49340;SDS011;35209;51.050;13.678;2022-09-06T02:52:32;10.23;;;9.63;;
49340;SDS011;35209;51.050;13.678;2022-09-06T02:57:34;10.00;;;9.30;;
49340;SDS011;35209;51.050;13.678;2022-09-06T03:02:36;10.77;;;10.07;;
49340;SDS011;35209;51.050;13.678;2022-09-06T03:07:38;10.35;;;9.65;;
49340;SDS011;35209;51.050;13.678;2022-09-06T03:12:43;10.23;;;9.70;;
49340;SDS011;35209;51.050;13.678;2022-09-06T03:17:47;10.43;;;9.82;;
49340;SDS011;35209;51.050;13.678;2022-09-06T03:22:49;9.43;;;8.80;;
49340;SDS011;35209;51.050;13.678;2022-09-06T03:27:52;10.55;;;9.70;;
49340;SDS011;35209;51.050;13.678;2022-09-06T03:32:53;9.55;;;8.95;;
49340;SDS011;35209;51.050;13.678;2022-09-06T03:37:55;9.73;;;9.13;;
49340;SDS011;35209;51.050;13.678;2022-09-06T03:42:57;11.65;;;10.95;;
49340;SDS011;35209;51.050;13.678;2022-09-06T03:47:58;10.70;;;9.93;;
49340;SDS011;35209;51.050;13.678;2022-09-06T03:53:00;9.38;;;8.70;;
49340;SDS011;35209;51.050;13.678;2022-09-06T03:58:01;9.52;;;8.93;;
49340;SDS011;35209;51.050;13.678;2022-09-06T04:03:03;10.23;;;9.23;;
49340;SDS011;35209;51.050;13.678;2022-09-06T04:08:05;9.45;;;8.95;;
49340;SDS011;35209;51.050;13.678;2022-09-06T04:13:07;9.13;;;8.52;;
49340;SDS011;35209;51.050;13.678;2022-09-06T04:18:08;9.55;;;8.95;;
49340;SDS011;35209;51.050;13.678;2022-09-06T04:23:10;9.10;;;8.38;;
49340;SDS011;35209;51.050;13.678;2022-09-06T04:28:12;9.52;;;8.95;;
49340;SDS011;35209;51.050;13.678;2022-09-06T04:33:13;9.98;;;9.30;;
49340;SDS011;35209;51.050;13.678;2022-09-06T04:38:15;10.32;;;9.63;;
49340;SDS011;35209;51.050;13.678;2022-09-06T04:43:17;9.98;;;9.10;;
49340;SDS011;35209;51.050;13.678;2022-09-06T04:48:18;9.88;;;9.27;;
49340;SDS011;35209;51.050;13.678;2022-09-06T04:53:20;10.20;;;8.93;;
49340;SDS011;35209;51.050;13.678;2022-09-06T04:58:22;8.52;;;7.80;;
49340;SDS011;35209;51.050;13.678;2022-09-06T05:03:24;9.55;;;8.82;;
49340;SDS011;35209;51.050;13.678;2022-09-06T05:08:25;9.50;;;8.82;;
49340;SDS011;35209;51.050;13.678;2022-09-06T05:13:27;11.93;;;8.75;;
49340;SDS011;35209;51.050;13.678;2022-09-06T05:18:29;8.35;;;7.72;;
49340;SDS011;35209;51.050;13.678;2022-09-06T05:23:31;8.13;;;6.28;;
49340;SDS011;35209;51.050;13.678;2022-09-06T05:28:33;8.00;;;7.30;;
49340;SDS011;35209;51.050;13.678;2022-09-06T05:33:35;7.85;;;7.13;;
49340;SDS011;35209;51.050;13.678;2022-09-06T05:38:37;7.57;;;6.90;;
49340;SDS011;35209;51.050;13.678;2022-09-06T05:43:39;7.80;;;7.03;;
49340;SDS011;35209;51.050;13.678;2022-09-06T05:48:40;7.05;;;6.45;;
49340;SDS011;35209;51.050;13.678;2022-09-06T05:53:43;7.50;;;6.70;;
49340;SDS011;35209;51.050;13.678;2022-09-06T05:58:45;8.40;;;7.45;;
49340;SDS011;35209;51.050;13.678;2022-09-06T06:03:54;6.85;;;6.35;;
49340;SDS011;35209;51.050;13.678;2022-09-06T06:14:05;7.40;;;6.90;;
49340;SDS011;35209;51.050;13.678;2022-09-06T06:19:07;7.68;;;6.97;;
49340;SDS011;35209;51.050;13.678;2022-09-06T06:24:08;7.20;;;6.57;;
49340;SDS011;35209;51.050;13.678;2022-09-06T06:29:10;7.47;;;6.65;;
49340;SDS011;35209;51.050;13.678;2022-09-06T06:34:12;7.20;;;6.47;;
49340;SDS011;35209;51.050;13.678;2022-09-06T06:39:13;6.95;;;6.40;;
49340;SDS011;35209;51.050;13.678;2022-09-06T06:44:15;7.25;;;6.25;;
49340;SDS011;35209;51.050;13.678;2022-09-06T06:49:17;5.90;;;5.50;;
49340;SDS011;35209;51.050;13.678;2022-09-06T06:54:18;7.70;;;5.93;;
49340;SDS011;35209;51.050;13.678;2022-09-06T06:59:20;8.93;;;6.60;;
49340;SDS011;35209;51.050;13.678;2022-09-06T07:04:22;6.22;;;5.65;;
49340;SDS011;35209;51.050;13.678;2022-09-06T07:09:23;6.55;;;5.20;;
49340;SDS011;35209;51.050;13.678;2022-09-06T07:14:26;8.23;;;5.65;;
49340;SDS011;35209;51.050;13.678;2022-09-06T07:19:28;5.60;;;5.20;;
49340;SDS011;35209;51.050;13.678;2022-09-06T07:24:49;6.50;;;6.00;;
49340;SDS011;35209;51.050;13.678;2022-09-06T07:29:51;5.22;;;4.82;;
49340;SDS011;35209;51.050;13.678;2022-09-06T07:34:53;5.00;;;4.65;;
49340;SDS011;35209;51.050;13.678;2022-09-06T07:39:55;4.97;;;4.20;;
49340;SDS011;35209;51.050;13.678;2022-09-06T07:44:56;5.15;;;4.75;;
49340;SDS011;35209;51.050;13.678;2022-09-06T07:49:58;5.25;;;4.75;;
49340;SDS011;35209;51.050;13.678;2022-09-06T07:55:19;9.60;;;4.90;;
49340;SDS011;35209;51.050;13.678;2022-09-06T08:00:21;4.80;;;4.50;;
49340;SDS011;35209;51.050;13.678;2022-09-06T08:05:23;7.18;;;5.15;;
49340;SDS011;35209;51.050;13.678;2022-09-06T08:10:48;4.75;;;4.35;;
49340;SDS011;35209;51.050;13.678;2022-09-06T08:15:57;4.82;;;4.30;;
49340;SDS011;35209;51.050;13.678;2022-09-06T08:21:10;4.47;;;4.07;;
49340;SDS011;35209;51.050;13.678;2022-09-06T08:26:17;7.47;;;4.70;;
49340;SDS011;35209;51.050;13.678;2022-09-06T08:31:21;9.88;;;4.38;;
49340;SDS011;35209;51.050;13.678;2022-09-06T08:36:23;5.90;;;4.32;;
49340;SDS011;35209;51.050;13.678;2022-09-06T09:02:45;14.18;;;4.35;;
49340;SDS011;35209;51.050;13.678;2022-09-06T09:07:55;19.63;;;5.72;;
49340;SDS011;35209;51.050;13.678;2022-09-06T09:13:01;5.07;;;4.03;;
49340;SDS011;35209;51.050;13.678;2022-09-06T09:18:07;6.85;;;4.30;;
49340;SDS011;35209;51.050;13.678;2022-09-06T09:23:09;9.65;;;4.00;;
49340;SDS011;35209;51.050;13.678;2022-09-06T09:28:22;4.10;;;3.80;;
49340;SDS011;35209;51.050;13.678;2022-09-06T09:38:41;4.97;;;4.53;;
49340;SDS011;35209;51.050;13.678;2022-09-06T09:43:53;4.25;;;3.85;;
49340;SDS011;35209;51.050;13.678;2022-09-06T09:54:30;4.47;;;4.07;;
49340;SDS011;35209;51.050;13.678;2022-09-06T10:04:37;5.97;;;3.95;;
49340;SDS011;35209;51.050;13.678;2022-09-06T10:09:47;5.43;;;3.95;;
49340;SDS011;35209;51.050;13.678;2022-09-06T10:14:57;5.22;;;3.88;;
49340;SDS011;35209;51.050;13.678;2022-09-06T10:20:08;5.03;;;3.55;;
49340;SDS011;35209;51.050;13.678;2022-09-06T10:25:13;4.53;;;3.67;;
49340;SDS011;35209;51.050;13.678;2022-09-06T10:31:01;3.60;;;3.30;;
49340;SDS011;35209;51.050;13.678;2022-09-06T10:46:46;3.63;;;3.33;;
49340;SDS011;35209;51.050;13.678;2022-09-06T10:51:56;4.85;;;3.72;;
49340;SDS011;35209;51.050;13.678;2022-09-06T10:57:15;4.95;;;3.33;;
49340;SDS011;35209;51.050;13.678;2022-09-06T11:02:50;4.20;;;3.08;;
49340;SDS011;35209;51.050;13.678;2022-09-06T11:13:47;4.75;;;3.00;;
49340;SDS011;35209;51.050;13.678;2022-09-06T11:18:54;4.35;;;3.35;;
49340;SDS011;35209;51.050;13.678;2022-09-06T11:24:11;3.20;;;3.00;;
49340;SDS011;35209;51.050;13.678;2022-09-06T11:29:23;3.40;;;3.10;;
49340;SDS011;35209;51.050;13.678;2022-09-06T11:34:28;7.40;;;3.38;;
49340;SDS011;35209;51.050;13.678;2022-09-06T11:39:33;4.75;;;3.30;;
49340;SDS011;35209;51.050;13.678;2022-09-06T11:50:16;3.45;;;3.15;;
49340;SDS011;35209;51.050;13.678;2022-09-06T11:55:29;3.92;;;2.75;;
49340;SDS011;35209;51.050;13.678;2022-09-06T12:00:39;3.40;;;2.65;;
49340;SDS011;35209;51.050;13.678;2022-09-06T12:21:57;3.20;;;2.90;;
49340;SDS011;35209;51.050;13.678;2022-09-06T12:27:10;3.22;;;2.92;;
49340;SDS011;35209;51.050;13.678;2022-09-06T12:32:12;3.00;;;2.67;;
49340;SDS011;35209;51.050;13.678;2022-09-06T12:37:36;2.53;;;2.33;;
49340;SDS011;35209;51.050;13.678;2022-09-06T12:42:50;3.22;;;2.80;;
49340;SDS011;35209;51.050;13.678;2022-09-06T12:48:03;3.90;;;2.92;;
49340;SDS011;35209;51.050;13.678;2022-09-06T12:53:19;3.95;;;2.55;;
49340;SDS011;35209;51.050;13.678;2022-09-06T12:58:28;3.65;;;2.58;;
49340;SDS011;35209;51.050;13.678;2022-09-06T13:08:53;3.63;;;2.20;;
49340;SDS011;35209;51.050;13.678;2022-09-06T13:13:57;2.85;;;2.28;;
49340;SDS011;35209;51.050;13.678;2022-09-06T13:19:12;3.92;;;2.50;;
49340;SDS011;35209;51.050;13.678;2022-09-06T13:34:25;4.10;;;1.33;;
49340;SDS011;35209;51.050;13.678;2022-09-06T13:39:30;2.80;;;1.05;;
49340;SDS011;35209;51.050;13.678;2022-09-06T13:44:39;7.95;;;2.00;;
49340;SDS011;35209;51.050;13.678;2022-09-06T13:49:41;10.30;;;4.70;;
49340;SDS011;35209;51.050;13.678;2022-09-06T13:54:43;4.18;;;3.25;;
49340;SDS011;35209;51.050;13.678;2022-09-06T13:59:44;4.72;;;4.20;;
49340;SDS011;35209;51.050;13.678;2022-09-06T14:04:46;4.72;;;4.32;;
49340;SDS011;35209;51.050;13.678;2022-09-06T14:09:49;5.85;;;5.30;;
49340;SDS011;35209;51.050;13.678;2022-09-06T14:14:54;7.50;;;6.80;;
49340;SDS011;35209;51.050;13.678;2022-09-06T14:19:56;7.05;;;6.32;;
49340;SDS011;35209;51.050;13.678;2022-09-06T14:24:58;7.10;;;6.60;;
49340;SDS011;35209;51.050;13.678;2022-09-06T14:30:01;6.22;;;5.93;;
49340;SDS011;35209;51.050;13.678;2022-09-06T14:35:03;9.18;;;6.97;;
49340;SDS011;35209;51.050;13.678;2022-09-06T14:40:06;7.15;;;6.50;;
49340;SDS011;35209;51.050;13.678;2022-09-06T14:45:11;6.80;;;4.45;;
49340;SDS011;35209;51.050;13.678;2022-09-06T14:50:12;5.25;;;4.95;;
49340;SDS011;35209;51.050;13.678;2022-09-06T14:55:14;4.78;;;4.47;;
49340;SDS011;35209;51.050;13.678;2022-09-06T15:00:16;7.03;;;6.45;;
49340;SDS011;35209;51.050;13.678;2022-09-06T15:05:19;6.57;;;6.07;;
49340;SDS011;35209;51.050;13.678;2022-09-06T15:10:21;5.28;;;4.88;;
49340;SDS011;35209;51.050;13.678;2022-09-06T15:15:22;5.88;;;5.22;;
49340;SDS011;35209;51.050;13.678;2022-09-06T15:20:25;4.18;;;3.78;;
49340;SDS011;35209;51.050;13.678;2022-09-06T15:25:26;3.40;;;3.20;;
49340;SDS011;35209;51.050;13.678;2022-09-06T15:30:28;5.82;;;5.43;;
49340;SDS011;35209;51.050;13.678;2022-09-06T15:35:30;5.50;;;5.15;;
49340;SDS011;35209;51.050;13.678;2022-09-06T15:40:33;5.35;;;5.03;;
49340;SDS011;35209;51.050;13.678;2022-09-06T15:45:46;5.63;;;5.22;;
49340;SDS011;35209;51.050;13.678;2022-09-06T15:50:49;6.80;;;6.40;;
49340;SDS011;35209;51.050;13.678;2022-09-06T15:55:56;8.77;;;7.97;;
49340;SDS011;35209;51.050;13.678;2022-09-06T16:06:08;10.20;;;9.40;;
49340;SDS011;35209;51.050;13.678;2022-09-06T16:11:29;9.63;;;8.93;;
49340;SDS011;35209;51.050;13.678;2022-09-06T16:16:33;10.27;;;9.68;;
49340;SDS011;35209;51.050;13.678;2022-09-06T16:21:37;10.13;;;9.32;;
49340;SDS011;35209;51.050;13.678;2022-09-06T16:26:41;11.50;;;10.80;;
49340;SDS011;35209;51.050;13.678;2022-09-06T16:31:46;12.75;;;11.88;;
49340;SDS011;35209;51.050;13.678;2022-09-06T16:36:49;12.10;;;11.32;;
49340;SDS011;35209;51.050;13.678;2022-09-06T16:41:50;11.68;;;11.07;;
49340;SDS011;35209;51.050;13.678;2022-09-06T16:46:53;14.45;;;13.55;;
49340;SDS011;35209;51.050;13.678;2022-09-06T16:51:57;13.45;;;12.52;;
49340;SDS011;35209;51.050;13.678;2022-09-06T16:57:00;13.88;;;13.18;;
49340;SDS011;35209;51.050;13.678;2022-09-06T17:02:02;13.10;;;12.40;;
49340;SDS011;35209;51.050;13.678;2022-09-06T17:07:04;14.23;;;13.32;;
49340;SDS011;35209;51.050;13.678;2022-09-06T17:12:06;12.50;;;11.70;;
49340;SDS011;35209;51.050;13.678;2022-09-06T17:17:08;13.70;;;12.90;;
49340;SDS011;35209;51.050;13.678;2022-09-06T17:22:10;13.68;;;12.80;;
49340;SDS011;35209;51.050;13.678;2022-09-06T17:27:13;14.20;;;13.38;;
49340;SDS011;35209;51.050;13.678;2022-09-06T17:32:14;15.18;;;14.27;;
49340;SDS011;35209;51.050;13.678;2022-09-06T17:37:16;15.45;;;14.63;;
49340;SDS011;35209;51.050;13.678;2022-09-06T17:42:18;17.67;;;16.63;;
49340;SDS011;35209;51.050;13.678;2022-09-06T17:47:20;16.65;;;15.73;;
49340;SDS011;35209;51.050;13.678;2022-09-06T17:52:22;17.20;;;16.30;;
49340;SDS011;35209;51.050;13.678;2022-09-06T17:57:24;18.35;;;17.35;;
49340;SDS011;35209;51.050;13.678;2022-09-06T18:02:25;17.67;;;16.67;;
49340;SDS011;35209;51.050;13.678;2022-09-06T18:07:28;18.17;;;17.13;;
49340;SDS011;35209;51.050;13.678;2022-09-06T18:12:30;16.17;;;15.27;;
49340;SDS011;35209;51.050;13.678;2022-09-06T18:17:32;16.92;;;16.02;;
49340;SDS011;35209;51.050;13.678;2022-09-06T18:22:34;17.15;;;16.25;;
49340;SDS011;35209;51.050;13.678;2022-09-06T18:27:38;20.17;;;18.70;;
49340;SDS011;35209;51.050;13.678;2022-09-06T18:32:40;21.70;;;20.45;;
49340;SDS011;35209;51.050;13.678;2022-09-06T18:37:42;19.38;;;18.33;;
49340;SDS011;35209;51.050;13.678;2022-09-06T18:42:44;20.77;;;19.33;;
49340;SDS011;35209;51.050;13.678;2022-09-06T18:47:46;22.10;;;20.90;;
49340;SDS011;35209;51.050;13.678;2022-09-06T18:52:48;19.33;;;18.30;;
49340;SDS011;35209;51.050;13.678;2022-09-06T18:57:50;22.40;;;21.20;;
49340;SDS011;35209;51.050;13.678;2022-09-06T19:02:52;21.30;;;20.15;;
49340;SDS011;35209;51.050;13.678;2022-09-06T19:07:54;22.20;;;20.83;;
49340;SDS011;35209;51.050;13.678;2022-09-06T19:12:56;19.90;;;18.58;;
49340;SDS011;35209;51.050;13.678;2022-09-06T19:18:01;20.52;;;19.42;;
49340;SDS011;35209;51.050;13.678;2022-09-06T19:23:03;21.77;;;20.58;;
49340;SDS011;35209;51.050;13.678;2022-09-06T19:28:04;22.15;;;20.85;;
49340;SDS011;35209;51.050;13.678;2022-09-06T19:33:06;24.30;;;23.02;;
49340;SDS011;35209;51.050;13.678;2022-09-06T19:38:08;23.70;;;22.30;;
49340;SDS011;35209;51.050;13.678;2022-09-06T19:43:10;24.20;;;22.80;;
49340;SDS011;35209;51.050;13.678;2022-09-06T19:48:12;25.30;;;23.65;;
49340;SDS011;35209;51.050;13.678;2022-09-06T19:53:14;24.38;;;22.98;;
49340;SDS011;35209;51.050;13.678;2022-09-06T19:58:15;23.20;;;21.92;;
49340;SDS011;35209;51.050;13.678;2022-09-06T20:03:18;23.08;;;21.88;;
49340;SDS011;35209;51.050;13.678;2022-09-06T20:08:19;24.75;;;23.15;;
49340;SDS011;35209;51.050;13.678;2022-09-06T20:13:21;22.63;;;20.98;;
49340;SDS011;35209;51.050;13.678;2022-09-06T20:18:23;20.85;;;19.70;;
49340;SDS011;35209;51.050;13.678;2022-09-06T20:23:26;19.65;;;18.55;;
49340;SDS011;35209;51.050;13.678;2022-09-06T20:28:29;23.25;;;22.05;;
49340;SDS011;35209;51.050;13.678;2022-09-06T20:33:31;23.35;;;21.85;;
49340;SDS011;35209;51.050;13.678;2022-09-06T20:38:35;23.92;;;22.33;;
49340;SDS011;35209;51.050;13.678;2022-09-06T20:43:39;20.63;;;19.52;;
49340;SDS011;35209;51.050;13.678;2022-09-06T20:48:42;23.45;;;22.08;;
49340;SDS011;35209;51.050;13.678;2022-09-06T20:53:46;22.20;;;20.90;;
49340;SDS011;35209;51.050;13.678;2022-09-06T20:58:54;23.30;;;21.98;;
49340;SDS011;35209;51.050;13.678;2022-09-06T21:03:59;23.23;;;21.70;;
49340;SDS011;35209;51.050;13.678;2022-09-06T21:09:03;19.63;;;18.63;;
49340;SDS011;35209;51.050;13.678;2022-09-06T21:14:06;22.48;;;21.10;;
49340;SDS011;35209;51.050;13.678;2022-09-06T21:19:10;24.35;;;22.85;;
49340;SDS011;35209;51.050;13.678;2022-09-06T21:24:12;20.92;;;19.83;;
49340;SDS011;35209;51.050;13.678;2022-09-06T21:29:14;24.35;;;22.90;;
49340;SDS011;35209;51.050;13.678;2022-09-06T21:34:15;21.92;;;20.42;;
49340;SDS011;35209;51.050;13.678;2022-09-06T21:39:17;23.73;;;22.35;;
49340;SDS011;35209;51.050;13.678;2022-09-06T21:44:19;25.80;;;24.35;;
49340;SDS011;35209;51.050;13.678;2022-09-06T21:49:21;23.20;;;22.00;;
49340;SDS011;35209;51.050;13.678;2022-09-06T21:54:22;24.42;;;23.13;;
49340;SDS011;35209;51.050;13.678;2022-09-06T21:59:24;29.42;;;27.73;;
49340;SDS011;35209;51.050;13.678;2022-09-06T22:04:26;27.48;;;26.08;;
49340;SDS011;35209;51.050;13.678;2022-09-06T22:09:28;27.60;;;26.00;;
49340;SDS011;35209;51.050;13.678;2022-09-06T22:14:29;29.52;;;28.00;;
49340;SDS011;35209;51.050;13.678;2022-09-06T22:19:31;25.73;;;24.33;;
49340;SDS011;35209;51.050;13.678;2022-09-06T22:24:33;28.23;;;26.60;;
49340;SDS011;35209;51.050;13.678;2022-09-06T22:29:34;32.53;;;30.02;;
49340;SDS011;35209;51.050;13.678;2022-09-06T22:34:36;32.13;;;30.27;;
49340;SDS011;35209;51.050;13.678;2022-09-06T22:39:38;32.50;;;30.70;;
49340;SDS011;35209;51.050;13.678;2022-09-06T22:44:39;31.45;;;29.52;;
49340;SDS011;35209;51.050;13.678;2022-09-06T22:49:41;31.05;;;29.27;;
49340;SDS011;35209;51.050;13.678;2022-09-06T22:54:43;26.08;;;24.65;;
49340;SDS011;35209;51.050;13.678;2022-09-06T22:59:44;28.45;;;26.88;;
49340;SDS011;35209;51.050;13.678;2022-09-06T23:04:46;26.50;;;25.02;;
49340;SDS011;35209;51.050;13.678;2022-09-06T23:09:47;26.88;;;25.27;;
49340;SDS011;35209;51.050;13.678;2022-09-06T23:14:49;26.40;;;24.85;;
49340;SDS011;35209;51.050;13.678;2022-09-06T23:19:51;25.10;;;23.70;;
49340;SDS011;35209;51.050;13.678;2022-09-06T23:24:52;23.45;;;22.25;;
49340;SDS011;35209;51.050;13.678;2022-09-06T23:29:54;19.77;;;18.67;;
49340;SDS011;35209;51.050;13.678;2022-09-06T23:34:56;22.25;;;21.15;;
49340;SDS011;35209;51.050;13.678;2022-09-06T23:39:57;23.88;;;22.58;;
49340;SDS011;35209;51.050;13.678;2022-09-06T23:44:59;22.20;;;21.00;;
49340;SDS011;35209;51.050;13.678;2022-09-06T23:50:01;22.52;;;21.33;;
49340;SDS011;35209;51.050;13.678;2022-09-06T23:55:03;22.30;;;20.98;;
